createdAt,value
2023-04-09T00:01:30.799Z,84.64
2023-04-09T00:03:59.475Z,84.36
2023-04-09T00:06:28.311Z,84.30
2023-04-09T00:08:56.651Z,84.35
2023-04-09T00:11:25.087Z,84.40
2023-04-09T00:13:54.796Z,84.63
2023-04-09T00:16:23.239Z,84.58
2023-04-09T00:18:51.878Z,84.82
2023-04-09T00:21:20.801Z,84.74
2023-04-09T00:23:49.381Z,84.79
2023-04-09T00:26:17.824Z,84.62
2023-04-09T00:28:46.308Z,84.63
2023-04-09T00:31:16.211Z,84.43
2023-04-09T00:33:44.587Z,84.77
2023-04-09T00:36:12.912Z,85.06
2023-04-09T00:38:41.426Z,84.38
2023-04-09T00:41:09.917Z,84.46
2023-04-09T00:43:38.287Z,85.16
2023-04-09T00:46:06.911Z,84.71
2023-04-09T00:48:37.460Z,85.22
2023-04-09T00:51:05.860Z,84.90
2023-04-09T00:53:36.234Z,84.60
2023-04-09T00:56:06.194Z,85.05
2023-04-09T00:58:36.373Z,84.95
2023-04-09T01:01:04.826Z,85.04
2023-04-09T01:03:37.142Z,84.36
2023-04-09T01:06:09.427Z,84.99
2023-04-09T01:08:45.842Z,84.81
2023-04-09T01:11:25.335Z,84.76
2023-04-09T01:14:02.500Z,84.51
2023-04-09T01:16:34.862Z,84.45
2023-04-09T01:19:12.653Z,84.83
2023-04-09T01:21:42.459Z,84.41
2023-04-09T01:24:22.730Z,84.85
2023-04-09T01:26:59.575Z,85.03
2023-04-09T01:29:34.493Z,84.51
2023-04-09T01:32:04.115Z,84.84
2023-04-09T01:34:33.906Z,84.44
2023-04-09T01:37:04.389Z,84.24
2023-04-09T01:39:34.665Z,84.47
2023-04-09T01:42:04.117Z,84.54
2023-04-09T01:44:34.457Z,84.80
2023-04-09T01:47:03.032Z,84.47
2023-04-09T01:49:31.919Z,84.54
2023-04-09T01:52:02.160Z,84.54
2023-04-09T01:54:30.482Z,84.72
2023-04-09T01:56:59.322Z,84.69
2023-04-09T01:59:27.813Z,84.21
2023-04-09T02:02:02.494Z,84.20
2023-04-09T02:04:36.745Z,84.08
2023-04-09T02:07:11.245Z,84.42
2023-04-09T02:09:44.314Z,84.33
2023-04-09T02:12:15.600Z,84.60
2023-04-09T02:14:46.989Z,83.93
2023-04-09T02:17:18.018Z,83.97
2023-04-09T02:19:48.637Z,84.23
2023-04-09T02:22:26.017Z,84.51
2023-04-09T02:25:04.657Z,83.94
2023-04-09T02:27:42.961Z,83.85
2023-04-09T02:30:12.561Z,83.79
2023-04-09T02:32:52.244Z,84.07
2023-04-09T02:35:30.638Z,83.59
2023-04-09T02:38:13.643Z,83.52
2023-04-09T02:40:51.969Z,84.16
2023-04-09T02:43:30.251Z,84.18
2023-04-09T02:46:08.900Z,83.95
2023-04-09T02:48:48.601Z,83.63
2023-04-09T02:51:17.004Z,83.70
2023-04-09T02:53:45.638Z,83.99
2023-04-09T02:56:14.040Z,84.68
2023-04-09T02:58:42.476Z,84.62
2023-04-09T03:01:11.112Z,84.25
2023-04-09T03:03:42.142Z,84.10
2023-04-09T03:06:12.194Z,83.71
2023-04-09T03:08:40.599Z,83.95
2023-04-09T03:11:08.936Z,83.70
2023-04-09T03:13:37.297Z,83.72
2023-04-09T03:16:06.300Z,83.42
2023-04-09T03:18:35.921Z,83.69
2023-04-09T03:21:07.530Z,83.60
2023-04-09T03:23:37.710Z,83.43
2023-04-09T03:26:07.143Z,83.91
2023-04-09T03:28:36.270Z,83.91
2023-04-09T03:31:04.700Z,83.50
2023-04-09T03:33:33.086Z,83.44
2023-04-09T03:36:01.519Z,83.56
2023-04-09T03:38:29.966Z,83.16
2023-04-09T03:40:59.655Z,83.55
2023-04-09T03:43:27.941Z,83.29
2023-04-09T03:45:56.300Z,83.48
2023-04-09T03:48:24.708Z,83.27
2023-04-09T03:50:53.765Z,83.48
2023-04-09T03:53:22.154Z,83.10
2023-04-09T03:55:50.650Z,83.05
2023-04-09T03:58:20.357Z,83.71
2023-04-09T04:00:48.720Z,83.56
2023-04-09T04:03:17.292Z,83.25
2023-04-09T04:05:45.776Z,83.26
2023-04-09T04:08:14.143Z,83.10
2023-04-09T04:10:42.506Z,83.26
2023-04-09T04:13:11.204Z,83.80
2023-04-09T04:15:42.709Z,83.78
2023-04-09T04:18:11.683Z,83.60
2023-04-09T04:20:41.336Z,83.14
2023-04-09T04:23:09.679Z,82.96
2023-04-09T04:25:38.095Z,83.32
2023-04-09T04:28:06.581Z,83.94
2023-04-09T04:30:36.182Z,83.59
2023-04-09T04:33:06.023Z,84.47
2023-04-09T04:35:34.622Z,83.97
2023-04-09T04:38:03.051Z,84.39
2023-04-09T04:40:31.571Z,83.70
2023-04-09T04:43:01.349Z,84.05
2023-04-09T04:45:29.750Z,83.95
2023-04-09T04:47:58.252Z,84.34
2023-04-09T04:50:27.997Z,84.32
2023-04-09T04:52:56.425Z,83.93
2023-04-09T04:55:24.790Z,83.55
2023-04-09T04:57:53.590Z,84.07
2023-04-09T05:00:21.900Z,84.12
2023-04-09T05:02:50.469Z,84.12
2023-04-09T05:05:18.876Z,84.20
2023-04-09T05:07:48.629Z,84.48
2023-04-09T05:10:17.050Z,84.27
2023-04-09T05:12:45.568Z,84.28
2023-04-09T05:15:14.097Z,84.46
2023-04-09T05:17:43.913Z,84.08
2023-04-09T05:20:13.208Z,83.97
2023-04-09T05:22:41.777Z,84.42
2023-04-09T05:25:11.729Z,84.01
2023-04-09T05:27:40.106Z,84.24
2023-04-09T05:30:09.801Z,84.30
2023-04-09T05:32:39.064Z,84.33
2023-04-09T05:35:07.855Z,84.79
2023-04-09T05:37:37.376Z,84.36
2023-04-09T05:40:06.892Z,84.16
2023-04-09T05:42:37.027Z,84.67
2023-04-09T05:45:06.057Z,84.76
2023-04-09T05:47:34.548Z,84.74
2023-04-09T05:50:03.399Z,84.25
2023-04-09T05:52:32.141Z,84.38
2023-04-09T05:55:00.625Z,83.93
2023-04-09T05:57:30.512Z,84.52
2023-04-09T06:00:00.289Z,84.32
2023-04-09T06:02:28.904Z,83.83
2023-04-09T06:04:57.416Z,84.05
2023-04-09T06:07:25.960Z,84.65
2023-04-09T06:09:54.661Z,84.05
2023-04-09T06:12:23.231Z,84.25
2023-04-09T06:14:51.731Z,84.55
2023-04-09T06:17:21.471Z,84.38
2023-04-09T06:19:49.850Z,84.21
2023-04-09T06:22:18.286Z,84.63
2023-04-09T06:24:46.603Z,84.86
2023-04-09T06:27:14.979Z,84.43
2023-04-09T06:29:43.346Z,84.74
2023-04-09T06:32:11.697Z,84.19
2023-04-09T06:34:41.512Z,84.23
2023-04-09T06:37:09.915Z,84.21
2023-04-09T06:39:42.498Z,83.98
2023-04-09T06:42:13.109Z,84.73
2023-04-09T06:44:41.513Z,84.36
2023-04-09T06:47:09.923Z,84.76
2023-04-09T06:49:38.323Z,84.63
2023-04-09T06:52:08.461Z,84.56
2023-04-09T06:54:40.134Z,84.58
2023-04-09T06:57:08.631Z,84.25
2023-04-09T06:59:38.224Z,84.84
2023-04-09T07:02:06.752Z,84.69
2023-04-09T07:04:35.727Z,84.09
2023-04-09T07:07:04.371Z,83.66
2023-04-09T07:09:34.157Z,84.20
2023-04-09T07:12:02.746Z,83.72
2023-04-09T07:14:31.225Z,84.03
2023-04-09T07:16:59.670Z,83.57
2023-04-09T07:19:28.108Z,83.49
2023-04-09T07:21:56.492Z,83.90
2023-04-09T07:24:24.958Z,83.30
2023-04-09T07:26:54.735Z,83.38
2023-04-09T07:29:23.175Z,84.01
2023-04-09T07:31:51.579Z,83.54
2023-04-09T07:34:20.050Z,83.50
2023-04-09T07:36:48.632Z,83.87
2023-04-09T07:39:17.339Z,83.74
2023-04-09T07:41:45.786Z,83.98
2023-04-09T07:44:15.686Z,83.59
2023-04-09T07:46:45.477Z,83.96
2023-04-09T07:49:13.938Z,83.86
2023-04-09T07:51:42.290Z,83.72
2023-04-09T07:54:11.020Z,83.36
2023-04-09T07:56:40.773Z,83.20
2023-04-09T07:59:09.254Z,83.38
2023-04-09T08:01:39.591Z,83.82
2023-04-09T08:04:08.204Z,83.33
2023-04-09T08:06:38.053Z,83.47
2023-04-09T08:09:06.826Z,83.36
2023-04-09T08:11:35.337Z,83.26
2023-04-09T08:14:04.671Z,83.06
2023-04-09T08:16:33.150Z,82.89
2023-04-09T08:19:02.932Z,83.08
2023-04-09T08:21:32.225Z,82.73
2023-04-09T08:24:04.429Z,83.04
2023-04-09T08:26:33.075Z,83.37
2023-04-09T08:29:02.508Z,83.21
2023-04-09T08:31:31.228Z,83.37
2023-04-09T08:33:59.864Z,83.09
2023-04-09T08:36:29.697Z,83.02
2023-04-09T08:38:58.170Z,82.75
2023-04-09T08:41:28.586Z,82.66
2023-04-09T08:43:59.204Z,82.24
2023-04-09T08:46:28.768Z,82.08
2023-04-09T08:48:57.301Z,82.10
2023-04-09T08:51:25.868Z,82.10
2023-04-09T08:53:58.335Z,81.86
2023-04-09T08:56:27.355Z,82.18
2023-04-09T08:58:56.707Z,81.92
2023-04-09T09:01:26.772Z,81.83
2023-04-09T09:03:57.958Z,81.67
2023-04-09T09:06:28.782Z,81.21
2023-04-09T09:09:04.117Z,81.22
2023-04-09T09:11:32.786Z,81.03
2023-04-09T09:14:05.617Z,81.34
2023-04-09T09:16:35.869Z,81.47
2023-04-09T09:19:04.572Z,81.77
2023-04-09T09:21:33.349Z,81.83
2023-04-09T09:24:03.773Z,82.30
2023-04-09T09:26:32.972Z,81.69
2023-04-09T09:29:05.946Z,81.65
2023-04-09T09:31:47.380Z,80.66
2023-04-09T09:34:15.913Z,80.96
2023-04-09T09:36:45.628Z,80.81
2023-04-09T09:39:17.590Z,80.30
2023-04-09T09:41:48.724Z,80.57
2023-04-09T09:44:32.774Z,80.05
2023-04-09T09:47:04.665Z,80.58
2023-04-09T09:49:33.186Z,80.10
2023-04-09T09:52:03.791Z,79.87
2023-04-09T09:54:41.733Z,79.91
2023-04-09T09:57:13.557Z,79.54
2023-04-09T09:59:48.764Z,79.35
2023-04-09T10:02:21.838Z,79.21
2023-04-09T10:04:52.828Z,79.31
2023-04-09T10:07:22.802Z,78.77
2023-04-09T10:09:54.679Z,77.80
2023-04-09T10:12:24.862Z,77.85
2023-04-09T10:14:53.530Z,77.14
2023-04-09T10:17:22.230Z,77.09
2023-04-09T10:19:57.844Z,76.49
2023-04-09T10:22:30.811Z,76.67
2023-04-09T10:25:00.807Z,75.94
2023-04-09T10:27:29.234Z,75.13
2023-04-09T10:29:57.769Z,75.06
2023-04-09T10:32:28.024Z,75.37
2023-04-09T10:34:59.328Z,75.07
2023-04-09T10:37:28.954Z,74.60
2023-04-09T10:39:57.926Z,74.52
2023-04-09T10:42:33.270Z,74.10
2023-04-09T10:45:09.641Z,73.24
2023-04-09T10:47:40.503Z,73.49
2023-04-09T10:50:20.102Z,72.70
2023-04-09T10:52:52.782Z,73.43
2023-04-09T10:55:44.455Z,72.44
2023-04-09T10:58:14.302Z,73.23
2023-04-09T11:00:45.152Z,73.45
2023-04-09T11:03:25.022Z,73.01
2023-04-09T11:05:56.700Z,72.89
2023-04-09T11:08:25.088Z,72.54
2023-04-09T11:10:58.318Z,72.32
2023-04-09T11:13:29.446Z,71.99
2023-04-09T11:15:58.667Z,71.47
2023-04-09T11:18:28.789Z,71.45
2023-04-09T11:20:57.616Z,71.06
2023-04-09T11:23:26.543Z,70.93
2023-04-09T11:25:56.228Z,70.14
2023-04-09T11:28:25.697Z,69.91
2023-04-09T11:30:55.517Z,69.75
2023-04-09T11:33:23.950Z,69.45
2023-04-09T11:35:52.606Z,68.97
2023-04-09T11:38:21.037Z,68.91
2023-04-09T11:40:49.936Z,68.71
2023-04-09T11:43:20.869Z,68.59
2023-04-09T11:45:50.299Z,68.09
2023-04-09T11:48:21.881Z,67.92
2023-04-09T11:50:50.881Z,67.42
2023-04-09T11:53:20.459Z,66.80
2023-04-09T11:55:51.388Z,66.46
2023-04-09T11:58:23.058Z,66.25
2023-04-09T12:00:54.771Z,65.66
2023-04-09T12:03:32.429Z,64.92
2023-04-09T12:06:03.134Z,65.38
2023-04-09T12:08:34.573Z,65.42
2023-04-09T12:11:10.515Z,65.28
2023-04-09T12:13:42.909Z,65.60
2023-04-09T12:16:11.573Z,66.03
2023-04-09T12:18:43.501Z,66.12
2023-04-09T12:21:12.003Z,65.99
2023-04-09T12:23:43.944Z,66.36
2023-04-09T12:26:12.507Z,66.53
2023-04-09T12:28:42.298Z,66.72
2023-04-09T12:31:12.002Z,66.38
2023-04-09T12:33:43.682Z,66.73
2023-04-09T12:36:12.101Z,66.70
2023-04-09T12:38:40.611Z,66.53
2023-04-09T12:41:09.565Z,67.25
2023-04-09T12:43:38.098Z,67.35
2023-04-09T12:46:07.113Z,67.69
2023-04-09T12:48:38.310Z,67.49
2023-04-09T12:51:09.031Z,67.98
2023-04-09T12:53:37.488Z,68.19
2023-04-09T12:56:06.661Z,68.45
2023-04-09T12:58:35.282Z,68.10
2023-04-09T13:01:07.505Z,67.88
2023-04-09T13:03:36.424Z,67.73
2023-04-09T13:06:05.447Z,67.64
2023-04-09T13:08:35.294Z,67.54
2023-04-09T13:11:04.443Z,67.43
2023-04-09T13:13:33.667Z,67.27
2023-04-09T13:16:02.319Z,67.12
2023-04-09T13:18:30.735Z,67.45
2023-04-09T13:20:59.150Z,67.46
2023-04-09T13:23:27.571Z,67.58
2023-04-09T13:25:57.332Z,67.57
2023-04-09T13:28:26.113Z,67.61
2023-04-09T13:30:54.811Z,67.74
2023-04-09T13:33:23.263Z,67.20
2023-04-09T13:35:52.043Z,67.51
2023-04-09T13:38:20.761Z,67.25
2023-04-09T13:40:49.409Z,67.15
2023-04-09T13:43:19.186Z,66.97
2023-04-09T13:45:49.813Z,67.21
2023-04-09T13:48:18.306Z,67.13
2023-04-09T13:50:46.977Z,67.13
2023-04-09T13:53:15.910Z,67.14
2023-04-09T13:55:48.575Z,67.52
2023-04-09T13:58:16.943Z,67.42
2023-04-09T14:00:47.417Z,67.39
2023-04-09T14:03:16.300Z,67.22
2023-04-09T14:05:46.211Z,66.77
2023-04-09T14:08:14.753Z,67.43
2023-04-09T14:10:44.294Z,66.97
2023-04-09T14:13:12.695Z,66.81
2023-04-09T14:15:41.821Z,66.79
2023-04-09T14:18:11.744Z,66.83
2023-04-09T14:20:40.234Z,66.88
2023-04-09T14:23:08.727Z,66.84
2023-04-09T14:25:37.466Z,67.40
2023-04-09T14:28:05.938Z,66.96
2023-04-09T14:30:34.418Z,67.07
2023-04-09T14:33:02.910Z,66.46
2023-04-09T14:35:32.787Z,66.13
2023-04-09T14:38:04.263Z,65.82
2023-04-09T14:40:33.283Z,65.70
2023-04-09T14:43:01.987Z,65.60
2023-04-09T14:45:31.013Z,65.90
2023-04-09T14:47:59.496Z,65.87
2023-04-09T14:50:27.925Z,65.79
2023-04-09T14:52:59.722Z,65.63
2023-04-09T14:55:28.321Z,65.64
2023-04-09T14:57:56.714Z,65.40
2023-04-09T15:00:25.432Z,64.86
2023-04-09T15:02:54.025Z,64.66
2023-04-09T15:05:22.840Z,64.77
2023-04-09T15:07:51.282Z,64.31
2023-04-09T15:10:21.534Z,63.84
2023-04-09T15:12:49.957Z,63.82
2023-04-09T15:15:18.367Z,63.73
2023-04-09T15:17:47.872Z,63.51
2023-04-09T15:20:16.267Z,63.05
2023-04-09T15:22:44.677Z,63.21
2023-04-09T15:25:14.457Z,63.33
2023-04-09T15:27:46.866Z,63.30
2023-04-09T15:30:15.374Z,63.45
2023-04-09T15:32:46.353Z,63.35
2023-04-09T15:35:19.105Z,63.25
2023-04-09T15:37:47.493Z,63.24
2023-04-09T15:40:16.003Z,63.52
2023-04-09T15:42:48.279Z,63.41
2023-04-09T15:45:17.364Z,63.45
2023-04-09T15:47:46.623Z,63.19
2023-04-09T15:50:15.182Z,63.40
2023-04-09T15:52:46.363Z,63.31
2023-04-09T15:55:14.821Z,63.46
2023-04-09T15:57:46.702Z,63.17
2023-04-09T16:00:16.636Z,62.85
2023-04-09T16:02:46.412Z,62.58
2023-04-09T16:05:14.852Z,62.25
2023-04-09T16:07:44.686Z,62.31
2023-04-09T16:10:14.716Z,62.24
2023-04-09T16:12:43.463Z,61.88
2023-04-09T16:15:12.440Z,61.97
2023-04-09T16:17:42.233Z,61.70
2023-04-09T16:20:11.070Z,61.45
2023-04-09T16:22:39.670Z,61.38
2023-04-09T16:25:09.740Z,61.16
2023-04-09T16:27:38.693Z,61.26
2023-04-09T16:30:08.254Z,61.09
2023-04-09T16:32:36.698Z,61.32
2023-04-09T16:35:07.372Z,60.94
2023-04-09T16:37:36.326Z,61.01
2023-04-09T16:40:05.095Z,61.33
2023-04-09T16:42:33.533Z,61.19
2023-04-09T16:45:04.373Z,60.94
2023-04-09T16:47:34.339Z,60.72
2023-04-09T16:50:03.058Z,60.67
2023-04-09T16:52:35.381Z,60.70
2023-04-09T16:55:03.979Z,60.67
2023-04-09T16:57:32.417Z,60.85
2023-04-09T17:00:00.864Z,60.91
2023-04-09T17:02:29.464Z,60.94
2023-04-09T17:04:58.721Z,61.29
2023-04-09T17:07:27.208Z,61.10
2023-04-09T17:09:57.359Z,61.32
2023-04-09T17:12:26.757Z,61.23
2023-04-09T17:14:56.057Z,61.37
2023-04-09T17:17:24.456Z,61.19
2023-04-09T17:19:53.469Z,61.67
2023-04-09T17:22:21.944Z,61.52
2023-04-09T17:24:51.696Z,62.07
2023-04-09T17:27:21.866Z,61.64
2023-04-09T17:29:50.807Z,62.21
2023-04-09T17:32:19.193Z,62.09
2023-04-09T17:34:50.669Z,62.07
2023-04-09T17:37:20.859Z,62.39
2023-04-09T17:39:49.323Z,62.42
2023-04-09T17:42:17.776Z,62.30
2023-04-09T17:44:50.574Z,62.54
2023-04-09T17:47:19.446Z,62.13
2023-04-09T17:49:48.059Z,63.15
2023-04-09T17:52:16.462Z,63.15
2023-04-09T17:54:46.681Z,63.31
2023-04-09T17:57:15.578Z,63.00
2023-04-09T17:59:44.085Z,63.58
2023-04-09T18:02:14.310Z,63.95
2023-04-09T18:04:43.037Z,63.69
2023-04-09T18:07:11.551Z,63.16
2023-04-09T18:09:40.610Z,64.28
2023-04-09T18:12:09.102Z,63.54
2023-04-09T18:14:37.483Z,63.78
2023-04-09T18:17:05.998Z,63.62
2023-04-09T18:19:35.756Z,64.25
2023-04-09T18:22:04.139Z,64.63
2023-04-09T18:24:33.714Z,64.57
2023-04-09T18:27:02.826Z,64.59
2023-04-09T18:29:32.175Z,65.13
2023-04-09T18:32:00.727Z,64.46
2023-04-09T18:34:29.658Z,65.30
2023-04-09T18:36:59.498Z,65.20
2023-04-09T18:39:27.976Z,65.34
2023-04-09T18:41:57.117Z,66.14
2023-04-09T18:44:25.998Z,65.64
2023-04-09T18:46:54.601Z,66.06
2023-04-09T18:49:23.050Z,66.14
2023-04-09T18:51:51.430Z,66.39
2023-04-09T18:54:21.349Z,66.34
2023-04-09T18:56:49.832Z,66.52
2023-04-09T18:59:18.422Z,66.88
2023-04-09T19:01:49.389Z,66.92
2023-04-09T19:04:17.987Z,66.96
2023-04-09T19:06:49.195Z,67.28
2023-04-09T19:09:17.748Z,67.18
2023-04-09T19:11:48.696Z,67.06
2023-04-09T19:14:17.265Z,67.58
2023-04-09T19:16:46.834Z,67.23
2023-04-09T19:19:15.191Z,67.46
2023-04-09T19:21:43.650Z,67.31
2023-04-09T19:24:12.035Z,67.67
2023-04-09T19:26:40.430Z,67.89
2023-04-09T19:29:10.315Z,68.19
2023-04-09T19:31:38.837Z,68.10
2023-04-09T19:34:07.314Z,68.28
2023-04-09T19:36:35.732Z,68.30
2023-04-09T19:39:04.377Z,68.72
2023-04-09T19:41:33.059Z,68.49
2023-04-09T19:44:02.441Z,68.73
2023-04-09T19:46:32.423Z,68.56
2023-04-09T19:49:01.000Z,68.68
2023-04-09T19:51:29.712Z,68.78
2023-04-09T19:53:58.136Z,68.76
2023-04-09T19:56:26.539Z,69.06
2023-04-09T19:58:55.412Z,69.61
2023-04-09T20:01:24.125Z,69.40
2023-04-09T20:03:54.104Z,69.29
2023-04-09T20:06:22.970Z,69.41
2023-04-09T20:08:53.261Z,69.41
2023-04-09T20:11:21.884Z,69.37
2023-04-09T20:13:50.279Z,69.09
2023-04-09T20:16:18.759Z,69.23
2023-04-09T20:18:47.611Z,69.10
2023-04-09T20:21:17.689Z,69.25
2023-04-09T20:23:46.280Z,69.05
2023-04-09T20:26:14.654Z,69.16
2023-04-09T20:28:43.466Z,69.38
2023-04-09T20:31:11.886Z,69.76
2023-04-09T20:33:40.501Z,69.49
2023-04-09T20:36:16.186Z,69.55
2023-04-09T20:38:46.266Z,69.24
2023-04-09T20:41:14.817Z,69.60
2023-04-09T20:43:43.277Z,69.32
2023-04-09T20:46:11.955Z,69.60
2023-04-09T20:48:40.474Z,69.47
2023-04-09T20:51:12.767Z,69.49
2023-04-09T20:53:41.171Z,69.59
2023-04-09T20:56:11.043Z,69.80
2023-04-09T20:58:39.977Z,69.91
2023-04-09T21:01:10.086Z,69.59
2023-04-09T21:03:40.101Z,69.68
2023-04-09T21:06:09.380Z,69.78
2023-04-09T21:08:38.491Z,69.94
2023-04-09T21:11:07.134Z,70.02
2023-04-09T21:13:51.009Z,70.25
2023-04-09T21:16:22.908Z,70.40
2023-04-09T21:18:51.715Z,70.77
2023-04-09T21:21:20.566Z,70.19
2023-04-09T21:23:49.489Z,70.86
2023-04-09T21:26:17.898Z,70.63
2023-04-09T21:28:50.572Z,70.40
2023-04-09T21:31:19.220Z,70.29
2023-04-09T21:33:50.014Z,70.38
2023-04-09T21:36:18.520Z,70.18
2023-04-09T21:38:48.260Z,69.68
2023-04-09T21:41:16.973Z,70.35
2023-04-09T21:43:46.946Z,70.21
2023-04-09T21:46:15.442Z,70.19
2023-04-09T21:48:43.993Z,70.53
2023-04-09T21:51:12.667Z,70.48
2023-04-09T21:53:41.137Z,70.47
2023-04-09T21:56:09.974Z,70.43
2023-04-09T21:58:38.426Z,70.18
2023-04-09T22:01:15.667Z,70.88
2023-04-09T22:03:47.625Z,70.31
2023-04-09T22:06:16.257Z,70.20
2023-04-09T22:08:55.558Z,70.47
2023-04-09T22:11:27.033Z,70.17
2023-04-09T22:13:56.259Z,70.20
2023-04-09T22:16:27.293Z,70.54
2023-04-09T22:18:56.277Z,70.85
2023-04-09T22:21:25.231Z,70.28
2023-04-09T22:23:53.678Z,70.90
2023-04-09T22:26:22.670Z,70.16
2023-04-09T22:28:52.489Z,70.58
2023-04-09T22:31:21.625Z,70.36
2023-04-09T22:33:52.555Z,70.26
2023-04-09T22:36:21.058Z,70.50
2023-04-09T22:38:51.921Z,70.49
2023-04-09T22:41:21.307Z,70.17
2023-04-09T22:43:52.466Z,70.58
2023-04-09T22:46:20.935Z,70.51
2023-04-09T22:48:52.073Z,70.52
2023-04-09T22:51:22.007Z,70.64
2023-04-09T22:53:51.274Z,70.23
2023-04-09T22:56:21.561Z,70.64
2023-04-09T22:58:51.638Z,70.33
2023-04-09T23:01:22.264Z,70.27
2023-04-09T23:03:52.085Z,70.72
2023-04-09T23:06:22.728Z,70.61
2023-04-09T23:08:51.797Z,70.33
2023-04-09T23:11:21.033Z,71.19
2023-04-09T23:13:50.411Z,70.61
2023-04-09T23:16:18.763Z,71.22
2023-04-09T23:18:47.166Z,71.15
2023-04-09T23:21:15.661Z,70.55
2023-04-09T23:23:45.427Z,70.66
2023-04-09T23:26:13.755Z,71.38
2023-04-09T23:28:42.178Z,70.72
2023-04-09T23:31:10.603Z,71.22
2023-04-09T23:33:38.994Z,71.77
2023-04-09T23:36:08.111Z,71.57
2023-04-09T23:38:36.635Z,71.07
2023-04-09T23:41:06.841Z,71.75
2023-04-09T23:43:35.354Z,71.16
2023-04-09T23:46:03.753Z,71.80
2023-04-09T23:48:32.111Z,71.75
2023-04-09T23:51:00.640Z,71.65
2023-04-09T23:53:29.028Z,71.80
2023-04-09T23:55:57.388Z,71.44
2023-04-09T23:58:27.151Z,71.71
